createdAt,value
2019-03-10T00:01:34.209Z,17.00
2019-03-10T00:04:00.013Z,26.23
2019-03-10T00:06:25.796Z,16.27
2019-03-10T00:08:51.593Z,24.67
2019-03-10T00:11:17.370Z,18.63
2019-03-10T00:13:43.165Z,19.00
2019-03-10T00:16:08.948Z,22.67
2019-03-10T00:18:34.757Z,17.20
2019-03-10T00:21:00.551Z,23.03
2019-03-10T00:23:26.364Z,17.97
2019-03-10T00:25:52.160Z,19.37
2019-03-10T00:28:18.240Z,16.83
2019-03-10T00:30:44.439Z,23.30
2019-03-10T00:33:10.201Z,18.40
2019-03-10T00:35:36.001Z,20.30
2019-03-10T00:38:01.790Z,20.23
2019-03-10T00:40:49.764Z,14.00
2019-03-10T00:43:53.219Z,24.60
2019-03-10T00:46:52.045Z,22.67
2019-03-10T00:49:27.736Z,21.67
2019-03-10T00:52:08.904Z,19.00
2019-03-10T00:54:34.700Z,17.70
2019-03-10T00:57:00.591Z,18.40
2019-03-10T00:59:26.499Z,26.33
2019-03-10T01:01:52.270Z,25.47
2019-03-10T01:04:18.154Z,19.67
2019-03-10T01:06:44.057Z,23.77
2019-03-10T01:09:09.831Z,23.67
2019-03-10T01:11:35.620Z,24.33
2019-03-10T01:14:01.394Z,25.33
2019-03-10T01:16:27.484Z,25.47
2019-03-10T01:18:53.667Z,19.63
2019-03-10T01:21:20.374Z,18.67
2019-03-10T01:23:46.153Z,29.37
2019-03-10T01:26:12.053Z,18.83
2019-03-10T01:28:37.827Z,23.43
2019-03-10T01:31:31.661Z,24.37
2019-03-10T01:34:19.312Z,20.50
2019-03-10T01:36:45.155Z,22.80
2019-03-10T01:39:11.038Z,17.03
2019-03-10T01:41:36.846Z,27.43
2019-03-10T01:44:02.632Z,23.17
2019-03-10T01:46:28.420Z,27.07
2019-03-10T01:48:54.200Z,21.33
2019-03-10T01:51:20.118Z,23.83
2019-03-10T01:53:45.903Z,24.63
2019-03-10T01:56:11.681Z,25.40
2019-03-10T01:58:37.481Z,23.80
2019-03-10T02:01:03.252Z,21.97
2019-03-10T02:03:29.059Z,21.40
2019-03-10T02:05:54.840Z,24.83
2019-03-10T02:08:21.043Z,27.37
2019-03-10T02:10:46.818Z,21.30
2019-03-10T02:13:12.727Z,23.67
2019-03-10T02:15:38.517Z,19.50
2019-03-10T02:18:04.316Z,22.03
2019-03-10T02:20:30.109Z,30.73
2019-03-10T02:22:55.906Z,22.67
2019-03-10T02:25:21.691Z,23.60
2019-03-10T02:27:47.502Z,25.17
2019-03-10T02:30:15.167Z,25.93
2019-03-10T02:32:41.049Z,28.00
2019-03-10T02:35:06.828Z,25.57
2019-03-10T02:37:32.628Z,24.50
2019-03-10T02:39:58.417Z,27.50
2019-03-10T02:42:24.207Z,20.53
2019-03-10T02:44:49.993Z,27.93
2019-03-10T02:47:15.775Z,21.70
2019-03-10T02:49:41.566Z,21.80
2019-03-10T02:52:07.352Z,28.57
2019-03-10T02:54:33.142Z,27.13
2019-03-10T02:56:58.926Z,24.33
2019-03-10T02:59:24.721Z,23.83
2019-03-10T03:01:50.500Z,30.47
2019-03-10T03:04:16.318Z,27.00
2019-03-10T03:06:42.106Z,20.33
2019-03-10T03:09:07.999Z,25.93
2019-03-10T03:11:33.783Z,24.40
2019-03-10T03:13:59.568Z,18.50
2019-03-10T03:16:25.344Z,23.53
2019-03-10T03:18:51.156Z,24.37
2019-03-10T03:21:16.946Z,21.00
2019-03-10T03:23:42.741Z,20.67
2019-03-10T03:26:08.522Z,20.33
2019-03-10T03:28:34.324Z,24.57
2019-03-10T03:31:00.116Z,26.87
2019-03-10T03:33:25.915Z,23.37
2019-03-10T03:35:57.307Z,24.47
2019-03-10T03:38:41.862Z,17.97
2019-03-10T03:41:19.356Z,23.80
2019-03-10T03:43:45.157Z,20.10
2019-03-10T03:46:10.943Z,24.50
2019-03-10T03:48:36.732Z,14.97
2019-03-10T03:51:02.518Z,22.07
2019-03-10T03:53:28.343Z,22.20
2019-03-10T03:55:54.297Z,17.70
2019-03-10T03:58:20.102Z,17.67
2019-03-10T04:00:47.768Z,23.13
2019-03-10T04:03:13.553Z,22.03
2019-03-10T04:05:39.341Z,21.50
2019-03-10T04:08:05.118Z,19.10
2019-03-10T04:10:30.930Z,17.93
2019-03-10T04:12:56.705Z,18.40
2019-03-10T04:15:22.507Z,16.47
2019-03-10T04:17:48.296Z,17.87
2019-03-10T04:20:14.089Z,15.20
2019-03-10T04:22:39.861Z,25.87
2019-03-10T04:25:06.466Z,22.13
2019-03-10T04:27:32.257Z,25.87
2019-03-10T04:29:58.045Z,16.33
2019-03-10T04:32:23.834Z,18.93
2019-03-10T04:34:49.622Z,18.77
2019-03-10T04:37:15.399Z,20.57
2019-03-10T04:39:41.195Z,16.13
2019-03-10T04:42:06.973Z,16.63
2019-03-10T04:44:32.778Z,23.37
2019-03-10T04:46:58.556Z,24.30
2019-03-10T04:49:24.370Z,18.10
2019-03-10T04:51:50.148Z,23.47
2019-03-10T04:54:17.843Z,20.60
2019-03-10T04:56:45.553Z,20.83
2019-03-10T04:59:11.334Z,20.83
2019-03-10T05:01:37.117Z,26.07
2019-03-10T05:04:02.896Z,21.10
2019-03-10T05:06:28.688Z,16.53
2019-03-10T05:08:54.463Z,17.40
2019-03-10T05:11:20.259Z,20.33
2019-03-10T05:13:46.032Z,25.20
2019-03-10T05:16:11.836Z,21.50
2019-03-10T05:18:37.611Z,23.83
2019-03-10T05:21:03.416Z,17.60
2019-03-10T05:23:34.536Z,19.50
2019-03-10T05:26:00.737Z,22.77
2019-03-10T05:28:28.614Z,16.03
2019-03-10T05:30:54.408Z,15.57
2019-03-10T05:33:20.219Z,20.43
2019-03-10T05:35:46.016Z,19.20
2019-03-10T05:38:11.796Z,17.83
2019-03-10T05:40:37.619Z,21.67
2019-03-10T05:43:03.405Z,25.17
2019-03-10T05:45:29.218Z,15.97
2019-03-10T05:47:54.978Z,16.83
2019-03-10T05:50:20.772Z,23.40
2019-03-10T05:52:46.546Z,19.93
2019-03-10T05:55:12.344Z,22.37
2019-03-10T05:57:38.120Z,24.57
2019-03-10T06:00:07.638Z,19.47
2019-03-10T06:02:33.427Z,25.93
2019-03-10T06:04:59.371Z,19.63
2019-03-10T06:07:25.163Z,18.80
2019-03-10T06:09:50.940Z,19.70
2019-03-10T06:12:16.737Z,19.50
2019-03-10T06:14:42.520Z,18.77
2019-03-10T06:17:08.313Z,17.63
2019-03-10T06:19:34.094Z,22.10
2019-03-10T06:21:59.899Z,20.77
2019-03-10T06:24:25.671Z,19.40
2019-03-10T06:26:51.480Z,18.60
2019-03-10T06:29:17.258Z,24.70
2019-03-10T06:31:43.048Z,22.23
2019-03-10T06:34:08.823Z,17.10
2019-03-10T06:36:34.620Z,19.87
2019-03-10T06:39:00.396Z,23.70
2019-03-10T06:41:26.212Z,20.30
2019-03-10T06:43:51.984Z,20.20
2019-03-10T06:46:17.793Z,15.40
2019-03-10T06:48:43.571Z,19.83
2019-03-10T06:51:09.356Z,29.83
2019-03-10T06:53:35.130Z,23.13
2019-03-10T06:56:00.929Z,18.87
2019-03-10T06:58:26.723Z,23.43
2019-03-10T07:00:52.523Z,25.53
2019-03-10T07:03:18.291Z,18.33
2019-03-10T07:05:44.079Z,20.83
2019-03-10T07:08:09.880Z,20.57
2019-03-10T07:10:35.660Z,23.70
2019-03-10T07:13:01.461Z,21.53
2019-03-10T07:15:27.233Z,21.03
2019-03-10T07:17:53.124Z,17.20
2019-03-10T07:20:19.210Z,11.83
2019-03-10T07:22:45.005Z,19.47
2019-03-10T07:25:10.791Z,22.23
2019-03-10T07:27:38.497Z,20.27
2019-03-10T07:30:09.287Z,15.07
2019-03-10T07:32:42.868Z,14.80
2019-03-10T07:35:10.561Z,15.70
2019-03-10T07:37:41.025Z,12.33
2019-03-10T07:40:11.271Z,16.40
2019-03-10T07:42:41.729Z,12.10
2019-03-10T07:45:15.232Z,16.83
2019-03-10T07:47:42.937Z,16.77
2019-03-10T07:50:28.489Z,20.83
2019-03-10T07:52:56.185Z,16.43
2019-03-10T07:55:29.515Z,17.40
2019-03-10T07:58:13.797Z,18.43
2019-03-10T08:00:53.454Z,17.77
2019-03-10T08:03:30.005Z,16.67
2019-03-10T08:05:57.691Z,16.30
2019-03-10T08:08:25.395Z,17.60
2019-03-10T08:11:02.062Z,14.73
2019-03-10T08:13:46.413Z,12.10
2019-03-10T08:16:30.740Z,17.30
2019-03-10T08:18:58.429Z,14.63
2019-03-10T08:21:28.664Z,13.27
2019-03-10T08:23:56.370Z,21.03
2019-03-10T08:26:26.572Z,18.17
2019-03-10T08:28:54.278Z,14.77
2019-03-10T08:31:21.963Z,18.10
2019-03-10T08:34:04.485Z,13.10
2019-03-10T08:36:41.036Z,14.47
2019-03-10T08:39:25.031Z,13.30
2019-03-10T08:42:04.637Z,19.87
2019-03-10T08:44:50.247Z,19.93
2019-03-10T08:47:17.932Z,15.97
2019-03-10T08:49:51.195Z,17.37
2019-03-10T08:52:24.499Z,12.67
2019-03-10T08:54:57.831Z,12.63
2019-03-10T08:57:40.670Z,17.07
2019-03-10T09:00:16.983Z,15.37
2019-03-10T09:03:03.048Z,15.37
2019-03-10T09:05:39.751Z,14.40
2019-03-10T09:08:07.497Z,15.47
2019-03-10T09:10:41.076Z,13.70
2019-03-10T09:13:11.401Z,16.73
2019-03-10T09:15:41.048Z,11.80
2019-03-10T09:18:23.892Z,17.47
2019-03-10T09:20:51.604Z,17.10
2019-03-10T09:23:21.211Z,14.20
2019-03-10T09:25:51.909Z,18.03
2019-03-10T09:28:28.405Z,13.93
2019-03-10T09:31:05.201Z,14.60
2019-03-10T09:33:32.925Z,13.97
2019-03-10T09:36:00.619Z,14.53
2019-03-10T09:38:28.321Z,15.83
2019-03-10T09:40:58.997Z,14.50
2019-03-10T09:43:29.448Z,17.67
2019-03-10T09:46:06.020Z,13.03
2019-03-10T09:48:39.256Z,10.33
2019-03-10T09:51:06.968Z,14.07
2019-03-10T09:53:43.395Z,16.17
2019-03-10T09:56:11.094Z,14.57
2019-03-10T09:58:47.590Z,17.50
2019-03-10T10:01:15.296Z,13.00
2019-03-10T10:03:45.772Z,15.10
2019-03-10T10:06:13.487Z,12.87
2019-03-10T10:08:46.756Z,10.90
2019-03-10T10:11:23.030Z,13.90
2019-03-10T10:13:56.465Z,12.77
2019-03-10T10:16:29.739Z,19.80
2019-03-10T10:19:03.410Z,14.33
2019-03-10T10:21:33.968Z,16.30
2019-03-10T10:24:04.156Z,14.67
2019-03-10T10:26:37.745Z,11.70
2019-03-10T10:29:08.413Z,11.63
2019-03-10T10:31:38.676Z,11.80
2019-03-10T10:34:23.295Z,8.60
2019-03-10T10:36:50.990Z,12.23
2019-03-10T10:39:21.752Z,15.37
2019-03-10T10:41:58.478Z,13.20
2019-03-10T10:44:26.174Z,12.23
2019-03-10T10:46:56.693Z,10.30
2019-03-10T10:49:27.120Z,12.90
2019-03-10T10:51:57.616Z,9.43
2019-03-10T10:54:25.441Z,11.80
2019-03-10T10:56:53.109Z,12.20
2019-03-10T10:59:20.804Z,10.73
2019-03-10T11:01:48.550Z,10.80
2019-03-10T11:04:21.884Z,11.83
2019-03-10T11:06:49.660Z,9.30
2019-03-10T11:09:20.437Z,9.40
2019-03-10T11:11:54.096Z,9.80
2019-03-10T11:14:38.347Z,10.47
2019-03-10T11:17:08.866Z,8.87
2019-03-10T11:19:36.648Z,10.73
2019-03-10T11:22:06.883Z,10.70
2019-03-10T11:24:34.643Z,9.60
2019-03-10T11:27:02.681Z,8.93
2019-03-10T11:29:46.937Z,12.43
2019-03-10T11:32:29.741Z,7.80
2019-03-10T11:35:15.427Z,9.77
2019-03-10T11:37:43.131Z,8.67
2019-03-10T11:40:29.323Z,7.03
2019-03-10T11:42:57.073Z,9.93
2019-03-10T11:45:41.534Z,10.23
2019-03-10T11:48:18.008Z,8.63
2019-03-10T11:50:54.772Z,8.80
2019-03-10T11:53:25.858Z,8.83
2019-03-10T11:55:53.627Z,9.07
2019-03-10T11:58:21.343Z,8.97
2019-03-10T12:00:51.868Z,10.97
2019-03-10T12:03:36.016Z,10.37
2019-03-10T12:06:03.711Z,8.17
2019-03-10T12:08:46.248Z,9.83
2019-03-10T12:11:12.037Z,11.83
2019-03-10T12:13:37.823Z,8.30
2019-03-10T12:16:03.705Z,11.67
2019-03-10T12:18:29.500Z,10.57
2019-03-10T12:20:55.300Z,9.30
2019-03-10T12:23:21.197Z,6.87
2019-03-10T12:25:47.034Z,13.17
2019-03-10T12:28:12.923Z,11.40
2019-03-10T12:30:38.827Z,9.50
2019-03-10T12:33:04.630Z,6.63
2019-03-10T12:35:34.388Z,10.63
2019-03-10T12:37:58.249Z,9.97
2019-03-10T12:40:24.062Z,9.07
2019-03-10T12:42:49.968Z,8.67
2019-03-10T12:45:15.996Z,8.30
2019-03-10T12:47:41.800Z,9.47
2019-03-10T12:50:10.946Z,9.97
2019-03-10T12:52:36.760Z,9.47
2019-03-10T12:55:05.486Z,9.47
2019-03-10T12:57:31.313Z,13.33
2019-03-10T12:59:57.108Z,8.80
2019-03-10T13:02:22.890Z,10.07
2019-03-10T13:04:48.699Z,11.33
2019-03-10T13:07:14.519Z,7.77
2019-03-10T13:09:40.424Z,9.60
2019-03-10T13:12:06.239Z,8.27
2019-03-10T13:14:32.795Z,8.60
2019-03-10T13:16:58.705Z,7.57
2019-03-10T13:19:25.523Z,8.07
2019-03-10T13:21:51.479Z,6.00
2019-03-10T13:24:17.538Z,7.53
2019-03-10T13:26:43.468Z,9.70
2019-03-10T13:29:09.474Z,6.83
2019-03-10T13:31:35.448Z,5.83
2019-03-10T13:34:01.691Z,5.97
2019-03-10T13:36:27.776Z,6.33
2019-03-10T13:38:53.572Z,3.77
2019-03-10T13:41:19.633Z,7.67
2019-03-10T13:43:45.484Z,6.17
2019-03-10T13:46:11.286Z,6.87
2019-03-10T13:48:37.176Z,6.00
2019-03-10T13:51:03.130Z,6.10
2019-03-10T13:53:28.961Z,5.37
2019-03-10T13:55:54.753Z,4.37
2019-03-10T13:58:20.583Z,7.83
2019-03-10T14:00:46.430Z,4.53
2019-03-10T14:03:12.320Z,6.13
2019-03-10T14:05:38.324Z,5.33
2019-03-10T14:08:05.301Z,6.97
2019-03-10T14:10:31.118Z,8.80
2019-03-10T14:12:56.925Z,6.87
2019-03-10T14:15:22.721Z,10.37
2019-03-10T14:17:48.594Z,7.33
2019-03-10T14:20:15.416Z,6.07
2019-03-10T14:22:41.422Z,6.33
2019-03-10T14:25:09.864Z,7.30
2019-03-10T14:27:35.805Z,7.33
2019-03-10T14:30:02.085Z,6.37
2019-03-10T14:32:27.911Z,10.40
2019-03-10T14:34:56.276Z,8.03
2019-03-10T14:37:22.119Z,8.10
2019-03-10T14:39:48.022Z,9.93
2019-03-10T14:42:14.198Z,7.37
2019-03-10T14:44:40.215Z,13.43
2019-03-10T14:47:06.075Z,9.47
2019-03-10T14:49:31.936Z,8.63
2019-03-10T14:51:58.397Z,10.93
2019-03-10T14:54:24.325Z,8.87
2019-03-10T14:56:50.279Z,7.30
2019-03-10T14:59:16.159Z,13.73
2019-03-10T15:01:42.158Z,8.43
2019-03-10T15:04:08.119Z,10.93
2019-03-10T15:06:34.054Z,9.40
2019-03-10T15:09:02.959Z,7.90
2019-03-10T15:11:28.988Z,9.40
2019-03-10T15:13:55.073Z,8.53
2019-03-10T15:16:20.859Z,11.27
2019-03-10T15:18:46.659Z,11.13
2019-03-10T15:21:12.447Z,8.20
2019-03-10T15:23:40.308Z,9.57
2019-03-10T15:26:05.925Z,7.60
2019-03-10T15:28:31.726Z,10.93
2019-03-10T15:30:57.510Z,14.30
2019-03-10T15:33:23.304Z,11.80
2019-03-10T15:35:49.080Z,12.53
2019-03-10T15:38:14.878Z,12.43
2019-03-10T15:40:40.656Z,8.20
2019-03-10T15:43:06.477Z,8.50
2019-03-10T15:45:32.260Z,10.10
2019-03-10T15:47:58.175Z,10.00
2019-03-10T15:50:26.858Z,11.50
2019-03-10T15:52:52.674Z,11.93
2019-03-10T15:55:18.446Z,6.93
2019-03-10T15:57:50.163Z,12.33
2019-03-10T16:00:20.604Z,11.37
2019-03-10T16:02:46.380Z,16.83
2019-03-10T16:05:12.276Z,11.40
2019-03-10T16:07:38.058Z,7.80
2019-03-10T16:10:06.762Z,10.43
2019-03-10T16:12:32.548Z,11.67
2019-03-10T16:14:58.431Z,12.33
2019-03-10T16:17:24.206Z,8.97
2019-03-10T16:19:50.020Z,22.23
2019-03-10T16:22:15.804Z,19.57
2019-03-10T16:24:41.611Z,11.40
2019-03-10T16:27:07.394Z,20.90
2019-03-10T16:29:33.198Z,13.60
2019-03-10T16:31:58.978Z,8.87
2019-03-10T16:34:24.774Z,18.00
2019-03-10T16:36:50.676Z,13.43
2019-03-10T16:39:16.466Z,12.27
2019-03-10T16:41:42.251Z,16.73
2019-03-10T16:44:08.042Z,9.67
2019-03-10T16:46:33.865Z,13.30
2019-03-10T16:48:59.645Z,10.03
2019-03-10T16:51:25.443Z,12.60
2019-03-10T16:53:51.219Z,10.47
2019-03-10T16:56:18.918Z,11.90
2019-03-10T16:58:44.696Z,10.40
2019-03-10T17:01:10.496Z,11.30
2019-03-10T17:03:36.271Z,11.47
2019-03-10T17:06:02.067Z,12.07
2019-03-10T17:08:27.843Z,8.97
2019-03-10T17:10:53.632Z,12.67
2019-03-10T17:13:22.446Z,10.33
2019-03-10T17:15:48.340Z,19.67
2019-03-10T17:18:14.133Z,10.10
2019-03-10T17:20:39.945Z,15.30
2019-03-10T17:23:05.724Z,9.90
2019-03-10T17:25:31.511Z,10.13
2019-03-10T17:27:57.290Z,13.50
2019-03-10T17:30:24.278Z,13.93
2019-03-10T17:32:50.171Z,7.70
2019-03-10T17:35:16.758Z,14.63
2019-03-10T17:37:44.204Z,12.50
2019-03-10T17:40:12.307Z,10.83
2019-03-10T17:42:38.172Z,15.13
2019-03-10T17:45:07.553Z,15.63
2019-03-10T17:47:35.817Z,14.40
2019-03-10T17:50:02.723Z,15.77
2019-03-10T17:52:28.597Z,13.37
2019-03-10T17:54:54.438Z,14.30
2019-03-10T17:57:20.321Z,10.73
2019-03-10T17:59:46.219Z,10.20
2019-03-10T18:02:11.995Z,10.07
2019-03-10T18:04:37.780Z,15.87
2019-03-10T18:07:03.838Z,10.73
2019-03-10T18:09:29.625Z,9.43
2019-03-10T18:11:56.540Z,8.40
2019-03-10T18:14:22.715Z,11.93
2019-03-10T18:16:48.517Z,13.07
2019-03-10T18:19:14.290Z,10.73
2019-03-10T18:21:40.089Z,12.73
2019-03-10T18:24:05.878Z,10.70
2019-03-10T18:26:31.647Z,10.23
2019-03-10T18:28:57.447Z,12.60
2019-03-10T18:31:23.227Z,10.97
2019-03-10T18:33:49.017Z,11.63
2019-03-10T18:36:14.796Z,10.20
2019-03-10T18:38:40.586Z,10.63
2019-03-10T18:41:06.366Z,12.20
2019-03-10T18:43:32.159Z,10.73
2019-03-10T18:45:57.937Z,8.77
2019-03-10T18:48:23.727Z,10.63
2019-03-10T18:50:49.509Z,11.47
2019-03-10T18:53:16.121Z,9.90
2019-03-10T18:55:42.189Z,8.13
2019-03-10T18:58:08.120Z,11.50
2019-03-10T19:00:34.309Z,11.27
2019-03-10T19:03:00.093Z,9.87
2019-03-10T19:05:25.872Z,10.63
2019-03-10T19:07:51.668Z,11.97
2019-03-10T19:10:17.449Z,13.90
2019-03-10T19:12:43.324Z,8.77
2019-03-10T19:15:11.644Z,9.57
2019-03-10T19:17:37.424Z,14.13
2019-03-10T19:20:06.925Z,9.43
2019-03-10T19:22:32.719Z,9.07
2019-03-10T19:24:58.509Z,10.77
2019-03-10T19:27:30.229Z,8.90
2019-03-10T19:29:51.996Z,8.63
2019-03-10T19:32:17.771Z,5.63
2019-03-10T19:34:43.591Z,12.33
2019-03-10T19:37:09.384Z,9.17
2019-03-10T19:39:35.177Z,10.57
2019-03-10T19:42:00.962Z,8.20
2019-03-10T19:44:26.754Z,14.03
2019-03-10T19:46:52.535Z,10.43
2019-03-10T19:49:18.326Z,12.87
2019-03-10T19:51:44.108Z,9.80
2019-03-10T19:54:09.902Z,11.57
2019-03-10T19:56:35.679Z,11.63
2019-03-10T19:59:01.479Z,8.43
2019-03-10T20:01:27.256Z,11.47
2019-03-10T20:03:53.075Z,9.50
2019-03-10T20:06:18.852Z,10.83
2019-03-10T20:08:44.651Z,8.93
2019-03-10T20:11:10.449Z,11.70
2019-03-10T20:13:36.228Z,8.53
2019-03-10T20:16:02.020Z,7.87
2019-03-10T20:18:27.812Z,11.97
2019-03-10T20:20:53.610Z,9.50
2019-03-10T20:23:19.395Z,8.63
2019-03-10T20:25:45.187Z,11.20
2019-03-10T20:28:10.964Z,10.87
2019-03-10T20:30:36.764Z,8.17
2019-03-10T20:33:02.549Z,6.47
2019-03-10T20:35:28.339Z,10.83
2019-03-10T20:37:54.135Z,8.27
2019-03-10T20:40:24.435Z,5.40
2019-03-10T20:42:50.230Z,3.90
2019-03-10T20:45:16.419Z,7.67
2019-03-10T20:47:42.244Z,9.13
2019-03-10T20:50:13.382Z,12.90
2019-03-10T20:52:39.166Z,11.30
2019-03-10T20:55:07.082Z,12.00
2019-03-10T20:57:32.869Z,9.63
2019-03-10T21:00:00.738Z,8.20
2019-03-10T21:02:26.344Z,8.67
2019-03-10T21:04:52.125Z,9.33
2019-03-10T21:07:17.918Z,10.83
2019-03-10T21:09:43.692Z,6.47
2019-03-10T21:12:09.482Z,7.97
2019-03-10T21:14:35.258Z,8.07
2019-03-10T21:17:01.060Z,8.73
2019-03-10T21:19:26.843Z,6.47
2019-03-10T21:21:52.642Z,7.33
2019-03-10T21:24:18.420Z,6.43
2019-03-10T21:26:44.214Z,6.53
2019-03-10T21:29:09.998Z,6.13
2019-03-10T21:31:35.795Z,7.23
2019-03-10T21:34:01.576Z,7.23
2019-03-10T21:36:27.371Z,6.30
2019-03-10T21:38:53.154Z,5.83
2019-03-10T21:41:18.949Z,8.20
2019-03-10T21:43:44.761Z,7.80
2019-03-10T21:46:10.519Z,7.20
2019-03-10T21:48:36.300Z,7.43
2019-03-10T21:51:02.075Z,11.27
2019-03-10T21:53:27.891Z,8.37
2019-03-10T21:55:53.674Z,8.63
2019-03-10T21:58:19.468Z,11.10
2019-03-10T22:00:45.247Z,7.07
2019-03-10T22:03:11.039Z,10.27
2019-03-10T22:05:36.818Z,8.87
2019-03-10T22:08:02.608Z,10.60
2019-03-10T22:10:28.388Z,8.03
2019-03-10T22:12:54.179Z,11.97
2019-03-10T22:15:19.959Z,14.07
2019-03-10T22:17:45.778Z,12.93
2019-03-10T22:20:14.166Z,14.40
2019-03-10T22:22:48.192Z,11.53
2019-03-10T22:25:12.868Z,10.30
2019-03-10T22:27:36.068Z,10.03
2019-03-10T22:30:03.268Z,11.83
2019-03-10T22:32:29.059Z,14.47
2019-03-10T22:34:54.851Z,9.07
2019-03-10T22:37:20.626Z,11.37
2019-03-10T22:39:46.436Z,10.87
2019-03-10T22:42:12.215Z,12.07
2019-03-10T22:44:38.005Z,7.83
2019-03-10T22:47:03.776Z,9.90
2019-03-10T22:49:29.563Z,8.63
2019-03-10T22:51:55.344Z,11.37
2019-03-10T22:54:21.137Z,9.37
2019-03-10T22:56:46.908Z,8.53
2019-03-10T22:59:12.708Z,7.40
2019-03-10T23:01:38.484Z,5.87
2019-03-10T23:04:04.299Z,7.17
2019-03-10T23:06:30.084Z,9.47
2019-03-10T23:08:55.870Z,6.47
2019-03-10T23:11:21.643Z,8.53
2019-03-10T23:13:47.464Z,6.57
2019-03-10T23:16:13.248Z,5.67
2019-03-10T23:18:39.027Z,9.30
2019-03-10T23:21:04.924Z,10.10
2019-03-10T23:23:30.701Z,7.93
2019-03-10T23:25:56.501Z,8.07
2019-03-10T23:28:22.474Z,8.07
2019-03-10T23:30:48.278Z,6.40
2019-03-10T23:33:14.044Z,8.13
2019-03-10T23:35:39.840Z,10.17
2019-03-10T23:38:05.622Z,8.53
2019-03-10T23:40:31.410Z,8.43
2019-03-10T23:42:57.189Z,5.53
2019-03-10T23:45:22.983Z,7.07
2019-03-10T23:47:48.767Z,4.63
2019-03-10T23:50:17.902Z,4.83
2019-03-10T23:52:43.687Z,7.62
2019-03-10T23:55:10.778Z,7.50
2019-03-10T23:57:36.564Z,9.27
